Weather at Warukin Airport

Public forecast

Using degrees Celsius for public forecast. Weather courtesy of forecast.io.

Closest aviation weather report (METAR) to Warukin Airport

Closest report is Syamsudin Noor Airport, 83.9 nm (155.4 km) SSW. Retrieved 2020/11/30 00:30 UTC (22 minutes ago):

WAOO 300030Z 01003KT 8000 SCT016 25/24 Q1010 NOSIG

Closest aviation forecast (TAF) to Warukin Airport

Forecast is more than 12 hours old.

Closest forecast is Gusti Syamsir Alam Airport, 78.1 nm (144.7 km) SE. Retrieved 2017/03/16 00:00 UTC (4 years ago):

TAF WAOK 152300Z 1600/1612 00000KT 6000 SCT015 BECMG 1601/1603 34010KT 9999 TEMPO 1608/1612 5000 TSRA FEW014CB